createdAt,value
2023-04-01T00:00:02.467Z,10.00
2023-04-01T00:02:29.372Z,9.80
2023-04-01T00:04:56.286Z,9.60
2023-04-01T00:07:23.469Z,9.50
2023-04-01T00:09:50.408Z,9.40
2023-04-01T00:12:17.439Z,9.40
2023-04-01T00:14:44.799Z,9.30
2023-04-01T00:17:11.692Z,9.20
2023-04-01T00:19:38.618Z,9.10
2023-04-01T00:22:05.423Z,9.10
2023-04-01T00:24:32.516Z,9.10
2023-04-01T00:26:59.347Z,9.00
2023-04-01T00:29:30.136Z,9.30
2023-04-01T00:31:57.940Z,9.30
2023-04-01T00:34:25.111Z,9.30
2023-04-01T00:36:55.122Z,9.30
2023-04-01T00:39:22.642Z,9.30
2023-04-01T00:41:49.600Z,9.40
2023-04-01T00:44:25.102Z,9.30
2023-04-01T00:46:53.788Z,9.20
2023-04-01T00:49:24.908Z,9.00
2023-04-01T00:51:55.293Z,8.80
2023-04-01T00:54:25.185Z,8.80
2023-04-01T00:57:24.922Z,8.80
2023-04-01T00:59:55.185Z,8.70
2023-04-01T01:02:22.641Z,8.60
2023-04-01T01:04:49.540Z,9.10
2023-04-01T01:07:41.515Z,9.20
2023-04-01T01:10:24.905Z,9.10
2023-04-01T01:13:03.646Z,9.10
2023-04-01T01:15:55.722Z,9.10
2023-04-01T01:18:44.836Z,9.10
2023-04-01T01:21:47.476Z,9.10
2023-04-01T01:24:44.147Z,8.90
2023-04-01T01:27:18.672Z,8.70
2023-04-01T01:30:04.052Z,8.60
2023-04-01T01:32:59.193Z,9.00
2023-04-01T01:35:37.694Z,9.20
2023-04-01T01:38:17.566Z,9.70
2023-04-01T01:40:48.790Z,10.10
2023-04-01T01:43:19.177Z,10.40
2023-04-01T01:45:52.676Z,10.70
2023-04-01T01:48:21.469Z,10.90
2023-04-01T01:50:50.817Z,11.20
2023-04-01T01:53:17.821Z,11.00
2023-04-01T01:55:47.678Z,10.60
2023-04-01T01:58:26.061Z,10.40
2023-04-01T02:00:58.232Z,10.30
2023-04-01T02:03:27.680Z,10.10
2023-04-01T02:05:57.794Z,10.10
2023-04-01T02:08:32.380Z,10.10
2023-04-01T02:11:06.639Z,9.90
2023-04-01T02:13:40.107Z,9.70
2023-04-01T02:16:16.974Z,9.50
2023-04-01T02:18:46.409Z,9.40
2023-04-01T02:21:14.357Z,9.20
2023-04-01T02:23:42.262Z,9.20
2023-04-01T02:26:11.048Z,9.20
2023-04-01T02:28:40.538Z,9.10
2023-04-01T02:31:09.769Z,9.10
2023-04-01T02:33:38.880Z,9.30
2023-04-01T02:36:06.533Z,9.40
2023-04-01T02:38:36.540Z,9.40
2023-04-01T02:41:04.196Z,9.50
2023-04-01T02:43:31.131Z,9.60
2023-04-01T02:45:57.942Z,9.50
2023-04-01T02:48:24.838Z,9.40
2023-04-01T02:50:51.724Z,9.70
2023-04-01T02:53:18.677Z,9.60
2023-04-01T02:55:46.041Z,9.40
2023-04-01T02:58:12.970Z,9.10
2023-04-01T03:00:39.768Z,8.70
2023-04-01T03:03:06.789Z,8.30
2023-04-01T03:05:33.964Z,8.00
2023-04-01T03:08:00.997Z,7.80
2023-04-01T03:10:27.817Z,8.00
2023-04-01T03:12:54.586Z,8.70
2023-04-01T03:15:21.432Z,9.70
2023-04-01T03:17:48.283Z,10.30
2023-04-01T03:20:16.079Z,10.70
2023-04-01T03:22:43.210Z,11.10
2023-04-01T03:25:11.701Z,11.20
2023-04-01T03:27:38.941Z,10.90
2023-04-01T03:30:07.197Z,10.60
2023-04-01T03:32:34.326Z,10.10
2023-04-01T03:35:01.135Z,9.50
2023-04-01T03:37:27.898Z,9.00
2023-04-01T03:39:54.883Z,8.80
2023-04-01T03:42:21.851Z,8.60
2023-04-01T03:44:48.748Z,9.10
2023-04-01T03:47:15.578Z,9.10
2023-04-01T03:49:42.431Z,9.00
2023-04-01T03:52:12.727Z,9.20
2023-04-01T03:54:39.742Z,9.40
2023-04-01T03:57:07.072Z,9.40
2023-04-01T03:59:34.966Z,9.40
2023-04-01T04:02:01.871Z,9.20
2023-04-01T04:04:29.198Z,9.20
2023-04-01T04:06:56.273Z,9.30
2023-04-01T04:09:23.844Z,9.70
2023-04-01T04:11:50.975Z,9.80
2023-04-01T04:14:18.160Z,9.70
2023-04-01T04:16:45.218Z,9.50
2023-04-01T04:19:12.250Z,9.40
2023-04-01T04:21:40.055Z,9.70
2023-04-01T04:24:07.180Z,9.90
2023-04-01T04:26:34.211Z,10.20
2023-04-01T04:29:02.074Z,10.50
2023-04-01T04:31:29.015Z,10.90
2023-04-01T04:33:56.353Z,11.10
2023-04-01T04:36:23.505Z,11.10
2023-04-01T04:38:50.846Z,11.20
2023-04-01T04:41:19.178Z,11.20
2023-04-01T04:43:54.538Z,11.20
2023-04-01T04:46:21.871Z,11.30
2023-04-01T04:48:49.000Z,11.40
2023-04-01T04:51:18.219Z,11.50
2023-04-01T04:53:45.731Z,11.50
2023-04-01T04:56:12.705Z,11.40
2023-04-01T04:58:40.527Z,11.50
2023-04-01T05:01:09.848Z,11.50
2023-04-01T05:03:36.810Z,11.40
2023-04-01T05:06:04.241Z,11.30
2023-04-01T05:08:31.052Z,11.40
2023-04-01T05:10:57.896Z,11.30
2023-04-01T05:13:24.808Z,11.40
2023-04-01T05:15:52.097Z,11.40
2023-04-01T05:18:18.913Z,11.40
2023-04-01T05:20:54.097Z,11.40
2023-04-01T05:23:22.230Z,11.40
2023-04-01T05:25:50.879Z,11.40
2023-04-01T05:28:18.170Z,11.50
2023-04-01T05:30:45.418Z,11.50
2023-04-01T05:33:13.971Z,11.50
2023-04-01T05:35:41.873Z,11.50
2023-04-01T05:38:08.939Z,11.50
2023-04-01T05:40:35.967Z,11.40
2023-04-01T05:43:02.860Z,11.50
2023-04-01T05:45:29.668Z,11.50
2023-04-01T05:47:56.505Z,11.50
2023-04-01T05:50:23.542Z,11.60
2023-04-01T05:52:50.330Z,11.60
2023-04-01T05:55:17.298Z,11.70
2023-04-01T05:57:46.547Z,11.70
2023-04-01T06:00:14.242Z,11.70
2023-04-01T06:02:43.149Z,11.80
2023-04-01T06:05:39.072Z,11.80
2023-04-01T06:08:17.600Z,11.80
2023-04-01T06:10:54.127Z,11.80
2023-04-01T06:13:40.575Z,11.80
2023-04-01T06:16:21.037Z,11.80
2023-04-01T06:19:06.467Z,11.90
2023-04-01T06:21:42.144Z,11.90
2023-04-01T06:24:32.156Z,11.90
2023-04-01T06:27:19.235Z,12.00
2023-04-01T06:30:06.923Z,12.00
2023-04-01T06:32:58.157Z,12.10
2023-04-01T06:36:06.961Z,12.10
2023-04-01T06:38:59.984Z,12.20
2023-04-01T06:41:44.569Z,12.30
2023-04-01T06:44:22.133Z,12.40
2023-04-01T06:47:00.175Z,12.50
2023-04-01T06:49:34.613Z,12.60
2023-04-01T06:52:09.762Z,12.60
2023-04-01T06:54:41.157Z,12.70
2023-04-01T06:57:35.215Z,12.80
2023-04-01T07:00:05.026Z,12.90
2023-04-01T07:02:51.046Z,13.00
2023-04-01T07:05:18.067Z,13.10
2023-04-01T07:07:51.352Z,13.20
2023-04-01T07:10:44.005Z,13.20
2023-04-01T07:13:27.347Z,13.30
2023-04-01T07:16:04.525Z,13.50
2023-04-01T07:18:42.874Z,13.50
2023-04-01T07:21:32.780Z,13.60
2023-04-01T07:24:06.147Z,13.70
2023-04-01T07:26:32.997Z,13.90
2023-04-01T07:28:59.820Z,14.00
2023-04-01T07:31:36.542Z,14.10
2023-04-01T07:34:11.484Z,14.20
2023-04-01T07:37:18.425Z,14.30
2023-04-01T07:39:53.959Z,14.40
2023-04-01T07:42:29.403Z,14.60
2023-04-01T07:45:18.846Z,14.70
2023-04-01T07:48:07.285Z,14.90
2023-04-01T07:50:48.832Z,15.10
2023-04-01T07:53:27.554Z,15.20
2023-04-01T07:56:12.829Z,15.30
2023-04-01T07:59:00.864Z,15.50
2023-04-01T08:01:30.470Z,15.60
2023-04-01T08:04:12.907Z,15.70
2023-04-01T08:07:08.225Z,15.90
2023-04-01T08:09:51.952Z,16.00
2023-04-01T08:12:57.016Z,16.10
2023-04-01T08:15:34.922Z,16.20
2023-04-01T08:18:21.877Z,16.30
2023-04-01T08:21:04.857Z,16.40
2023-04-01T08:23:48.396Z,16.50
2023-04-01T08:26:27.568Z,16.70
2023-04-01T08:29:15.523Z,16.70
2023-04-01T08:31:59.306Z,16.80
2023-04-01T08:34:31.773Z,16.90
2023-04-01T08:37:06.612Z,17.00
2023-04-01T08:39:38.409Z,17.10
2023-04-01T08:42:14.061Z,17.20
2023-04-01T08:45:01.485Z,17.10
2023-04-01T08:48:00.601Z,17.20
2023-04-01T08:50:36.253Z,17.30
2023-04-01T08:53:30.805Z,17.40
2023-04-01T08:56:21.786Z,17.40
2023-04-01T08:58:57.631Z,17.50
2023-04-01T09:01:54.732Z,17.60
2023-04-01T09:04:50.801Z,17.70
2023-04-01T09:07:36.780Z,17.90
2023-04-01T09:10:20.332Z,18.00
2023-04-01T09:13:04.090Z,18.10
2023-04-01T09:16:07.582Z,18.20
2023-04-01T09:18:42.959Z,18.30
2023-04-01T09:21:36.706Z,18.40
2023-04-01T09:24:29.298Z,18.40
2023-04-01T09:27:44.117Z,18.60
2023-04-01T09:30:44.919Z,18.80
2023-04-01T09:33:43.890Z,18.90
2023-04-01T09:36:19.550Z,19.10
2023-04-01T09:39:23.914Z,19.20
2023-04-01T09:42:12.497Z,19.40
2023-04-01T09:44:51.381Z,19.50
2023-04-01T09:47:39.006Z,19.60
2023-04-01T09:50:18.022Z,19.70
2023-04-01T09:53:15.831Z,19.70
2023-04-01T09:56:19.768Z,19.70
2023-04-01T09:59:10.941Z,19.50
2023-04-01T10:01:46.872Z,19.90
2023-04-01T10:04:58.387Z,20.10
2023-04-01T10:08:02.977Z,20.40
2023-04-01T10:11:03.271Z,20.30
2023-04-01T10:13:36.606Z,20.40
2023-04-01T10:16:09.647Z,20.70
2023-04-01T10:19:07.303Z,20.70
2023-04-01T10:22:01.846Z,20.60
2023-04-01T10:24:52.587Z,20.20
2023-04-01T10:27:41.060Z,19.90
2023-04-01T10:30:29.478Z,19.90
2023-04-01T10:33:39.332Z,20.10
2023-04-01T10:36:18.398Z,20.20
2023-04-01T10:38:57.155Z,20.40
2023-04-01T10:41:31.119Z,20.50
2023-04-01T10:44:00.669Z,20.40
2023-04-01T10:46:27.519Z,20.00
2023-04-01T10:49:21.182Z,19.70
2023-04-01T10:51:56.791Z,19.50
2023-04-01T10:54:48.921Z,19.40
2023-04-01T10:57:37.368Z,19.20
2023-04-01T11:00:35.883Z,19.10
2023-04-01T11:03:05.470Z,19.10
2023-04-01T11:06:11.786Z,19.50
2023-04-01T11:08:59.475Z,19.70
2023-04-01T11:11:51.971Z,19.60
2023-04-01T11:14:45.918Z,19.40
2023-04-01T11:17:32.138Z,19.30
2023-04-01T11:20:39.798Z,19.20
2023-04-01T11:23:18.821Z,19.00
2023-04-01T11:25:51.226Z,18.90
2023-04-01T11:28:36.880Z,18.80
2023-04-01T11:31:27.790Z,18.70
2023-04-01T11:34:03.609Z,18.70
2023-04-01T11:36:52.652Z,18.70
2023-04-01T11:39:55.900Z,19.00
2023-04-01T11:42:45.771Z,19.40
2023-04-01T11:45:36.378Z,19.70
2023-04-01T11:48:28.996Z,20.20
2023-04-01T11:51:02.292Z,20.50
2023-04-01T11:53:53.074Z,20.90
2023-04-01T11:56:44.310Z,21.10
2023-04-01T11:59:13.903Z,21.30
2023-04-01T12:01:43.671Z,21.10
2023-04-01T12:04:22.696Z,20.90
2023-04-01T12:06:53.228Z,20.90
2023-04-01T12:09:34.276Z,20.70
2023-04-01T12:12:23.924Z,20.60
2023-04-01T12:15:12.702Z,20.60
2023-04-01T12:18:13.839Z,20.60
2023-04-01T12:20:51.870Z,20.80
2023-04-01T12:23:21.731Z,21.30
2023-04-01T12:26:18.985Z,21.60
2023-04-01T12:29:08.490Z,21.90
2023-04-01T12:31:51.843Z,22.10
2023-04-01T12:34:37.204Z,22.40
2023-04-01T12:37:33.556Z,22.90
2023-04-01T12:40:57.034Z,23.20
2023-04-01T12:43:47.935Z,23.50
2023-04-01T12:46:21.483Z,23.70
2023-04-01T12:49:07.984Z,23.50
2023-04-01T12:51:51.572Z,23.50
2023-04-01T12:54:41.653Z,23.70
2023-04-01T12:57:40.974Z,23.80
2023-04-01T13:00:45.710Z,24.10
2023-04-01T13:03:42.826Z,24.20
2023-04-01T13:06:26.280Z,24.40
2023-04-01T13:09:22.144Z,24.60
2023-04-01T13:12:08.375Z,24.30
2023-04-01T13:14:52.184Z,24.30
2023-04-01T13:17:36.174Z,24.30
2023-04-01T13:20:27.470Z,24.10
2023-04-01T13:23:15.216Z,24.10
2023-04-01T13:25:44.760Z,24.30
2023-04-01T13:28:22.032Z,24.20
2023-04-01T13:31:19.390Z,24.30
2023-04-01T13:34:16.442Z,24.50
2023-04-01T13:36:52.036Z,25.20
2023-04-01T13:39:48.553Z,25.50
2023-04-01T13:42:23.549Z,25.60
2023-04-01T13:45:18.511Z,25.70
2023-04-01T13:47:57.078Z,26.10
2023-04-01T13:50:40.125Z,26.00
2023-04-01T13:53:41.066Z,25.60
2023-04-01T13:56:27.613Z,25.30
2023-04-01T13:59:21.983Z,24.80
2023-04-01T14:02:00.981Z,24.10
2023-04-01T14:05:03.313Z,23.70
2023-04-01T14:07:41.606Z,23.90
2023-04-01T14:10:19.660Z,24.30
2023-04-01T14:13:01.422Z,24.30
2023-04-01T14:15:42.836Z,24.10
2023-04-01T14:18:17.020Z,23.70
2023-04-01T14:21:14.523Z,23.20
2023-04-01T14:23:47.520Z,22.80
2023-04-01T14:26:23.510Z,22.40
2023-04-01T14:29:15.322Z,22.10
2023-04-01T14:31:44.899Z,21.90
2023-04-01T14:34:42.935Z,21.60
2023-04-01T14:37:46.440Z,21.50
2023-04-01T14:40:52.001Z,21.50
2023-04-01T14:43:40.555Z,21.40
2023-04-01T14:46:12.981Z,21.30
2023-04-01T14:48:56.909Z,21.10
2023-04-01T14:51:32.033Z,21.00
2023-04-01T14:54:24.042Z,20.80
2023-04-01T14:57:19.527Z,20.70
2023-04-01T15:00:11.089Z,20.50
2023-04-01T15:02:50.137Z,20.40
2023-04-01T15:05:41.306Z,20.20
2023-04-01T15:08:33.789Z,20.20
2023-04-01T15:11:15.911Z,20.10
2023-04-01T15:14:07.679Z,20.10
2023-04-01T15:16:56.860Z,20.20
2023-04-01T15:19:48.397Z,20.50
2023-04-01T15:22:50.553Z,20.80
2023-04-01T15:25:53.579Z,20.70
2023-04-01T15:28:35.094Z,20.50
2023-04-01T15:31:19.051Z,20.30
2023-04-01T15:34:19.781Z,20.10
2023-04-01T15:37:37.661Z,19.90
2023-04-01T15:40:38.270Z,19.70
2023-04-01T15:43:22.999Z,19.60
2023-04-01T15:46:14.333Z,19.50
2023-04-01T15:49:16.747Z,19.40
2023-04-01T15:52:01.545Z,19.20
2023-04-01T15:54:52.939Z,19.10
2023-04-01T15:57:48.007Z,19.10
2023-04-01T16:00:31.348Z,19.00
2023-04-01T16:03:09.867Z,18.90
2023-04-01T16:06:10.628Z,18.80
2023-04-01T16:09:09.724Z,18.70
2023-04-01T16:11:42.805Z,18.70
2023-04-01T16:14:38.573Z,18.60
2023-04-01T16:17:30.618Z,18.60
2023-04-01T16:20:01.054Z,18.50
2023-04-01T16:22:35.952Z,18.40
2023-04-01T16:25:40.288Z,18.40
2023-04-01T16:28:29.314Z,18.30
2023-04-01T16:31:10.388Z,18.30
2023-04-01T16:34:04.039Z,18.30
2023-04-01T16:36:47.817Z,18.60
2023-04-01T16:39:28.505Z,19.00
2023-04-01T16:42:12.985Z,19.40
2023-04-01T16:45:08.882Z,19.90
2023-04-01T16:47:57.698Z,20.30
2023-04-01T16:51:01.097Z,20.40
2023-04-01T16:53:41.923Z,20.40
2023-04-01T16:56:22.122Z,20.50
2023-04-01T16:59:16.129Z,20.70
2023-04-01T17:02:01.299Z,20.80
2023-04-01T17:04:28.105Z,20.80
2023-04-01T17:07:16.193Z,20.80
2023-04-01T17:10:00.868Z,20.80
2023-04-01T17:13:00.449Z,20.70
2023-04-01T17:15:34.161Z,20.50
2023-04-01T17:18:43.934Z,20.10
2023-04-01T17:21:23.639Z,19.70
2023-04-01T17:24:06.358Z,19.50
2023-04-01T17:26:50.234Z,19.30
2023-04-01T17:29:30.085Z,19.00
2023-04-01T17:32:29.612Z,18.80
2023-04-01T17:35:09.010Z,18.60
2023-04-01T17:37:47.043Z,18.40
2023-04-01T17:40:35.801Z,18.30
